PST,Max TemperatureF,Mean TemperatureF,Min TemperatureF,Max Dew PointF,MeanDew PointF,Min DewpointF,Max Humidity, Mean Humidity, Min Humidity, Max Sea Level PressureIn, Mean Sea Level PressureIn, Min Sea Level PressureIn, Max VisibilityMiles, Mean VisibilityMiles, Min VisibilityMiles, Max Wind SpeedMPH, Mean Wind SpeedMPH, Max Gust SpeedMPH,PrecipitationIn, CloudCover, Events, WindDirDegrees
2012-11-1,48,44,39,41,39,36,100,90,66,30.06,29.97,29.85,10,5,0,21,15,29,0.00,5,Fog-Rain,186
2012-11-2,48,44,41,40,38,34,96,80,62,30.04,30.02,29.99,10,10,6,16,12,21,0.06,5,Rain,162
2012-11-3,55,50,44,48,46,39,100,90,72,30.23,30.15,30.03,10,6,0,15,11,20,0.02,6,Fog-Rain,180
2012-11-4,62,54,48,49,46,44,86,72,60,30.38,30.31,30.23,10,10,10,10,7,,0.00,3,,136
2012-11-5,66,60,53,50,47,38,83,62,36,30.31,30.22,30.09,10,10,10,10,5,,0.00,0,,96
2012-11-6,66,58,48,49,44,41,96,64,42,30.12,30.05,30.01,10,8,0,16,9,,0.00,1,Fog-Rain,226
2012-11-7,46,40,33,45,37,30,100,93,76,30.13,30.05,29.86,10,5,0,13,8,20,0.03,4,Fog-Rain,351
2012-11-8,34,31,28,34,30,27,100,95,92,29.87,29.77,29.71,10,2,0,12,5,17,0.35,8,Fog-Rain-Snow,226
2012-11-9,32,29,26,30,27,25,100,94,86,29.93,29.83,29.77,10,2,0,10,3,,0.31,8,Fog-Snow,226
2012-11-10,32,30,28,30,28,27,100,92,85,30.24,29.99,29.85,10,3,0,10,3,,0.03,7,Fog-Snow,266
2012-11-11,36,32,30,31,29,27,93,90,78,30.33,30.25,30.16,10,7,0,20,11,26,0.01,7,Fog-Snow,162
2012-11-12,41,37,33,40,36,32,100,96,89,30.29,30.24,30.20,10,4,0,21,15,30,0.21,8,Fog-Rain,169
2012-11-13,42,40,39,43,39,37,100,98,93,30.24,30.18,30.13,10,2,0,10,7,17,0.02,6,Fog-Rain,175
2012-11-14,44,40,37,43,39,36,100,93,76,30.23,30.16,30.11,10,2,0,8,3,,0.01,3,Fog-Rain,86
2012-11-15,52,44,37,38,36,33,100,83,54,30.10,30.03,29.91,10,6,0,13,10,,0.00,2,Fog,145
2012-11-16,46,42,39,38,36,32,89,77,60,29.90,29.86,29.76,10,10,9,16,11,22,0.00,5,Rain,165
2012-11-17,44,37,30,43,35,30,100,94,79,29.88,29.74,29.62,10,2,0,20,14,25,0.45,8,Fog-Rain-Snow,182
2012-11-18,37,34,32,38,34,30,100,97,87,29.94,29.86,29.82,10,4,0,21,16,39,0.10,8,Fog-Rain-Snow,174
2012-11-19,46,42,37,46,43,37,100,98,87,29.89,29.79,29.74,10,3,0,26,18,46,2.19,8,Fog-Rain,186
2012-11-20,45,41,37,45,42,37,100,100,93,29.80,29.74,29.63,2,0,0,28,16,61,2.32,8,Fog-Rain,191
2012-11-21,37,34,32,37,34,32,100,100,93,30.30,30.03,29.73,10,2,0,17,10,31,0.32,8,Fog-Rain-Snow,206
2012-11-22,43,36,30,32,30,27,100,82,55,30.32,30.27,30.22,10,6,0,18,11,,0.01,1,Fog,128
2012-11-23,50,46,41,38,32,26,76,64,49,30.29,30.25,30.21,10,10,10,16,11,24,0.00,3,,181
2012-11-24,46,42,37,47,42,37,100,97,81,30.23,30.15,30.11,10,1,0,20,12,28,0.28,8,Fog-Rain,314
2012-11-25,41,38,35,40,37,34,100,97,93,30.13,30.07,29.99,6,1,0,16,7,,0.00,1,Fog-Rain,75
2012-11-26,52,44,37,40,37,34,100,79,57,30.03,30.00,29.96,10,9,1,17,11,,0.00,0,,144
2012-11-27,46,44,42,34,30,29,68,59,54,30.00,29.92,29.80,10,10,10,21,11,31,0.00,0,,129
2012-11-28,45,42,39,43,37,29,100,87,55,29.77,29.71,29.63,10,6,0,20,16,34,0.09,8,Fog-Rain,166
2012-11-29,44,40,35,41,37,31,100,96,60,29.73,29.64,29.52,10,1,0,23,16,38,2.17,8,Fog-Rain,166
2012-11-30,42,40,37,41,39,37,100,98,93,29.62,29.59,29.49,10,1,0,25,18,46,0.44,8,Fog-Rain,183